Aeroporto :
LOGIN :

Iscrizione | Disclaimer

   EN    FR    IT 

 










Sommario :    VFR   VFR Marginale   IFR   IFR Intensivo   IFR Molto Intensivo
Visibilità : 
Base nubi : 
>= 8 km
>= 3000ft
5 / 8 km
1000 / 3000 ft
1500m / 5 km
500 / 1000 ft
800 / 1500m
200 / 500 ft
< 800m
< 200 ft
Simboli :   Temporali  Nebbia  Neve Forte  Precipitazioni Forti  Vento > 20 kt
SIGMETs :   Varie  Temporali  Ghiacco  Turbolenza  Onda orograficha  Ceneri Vulcaniche






- Altitudine del aeroporto : 1367 ft
- Codice IATA : FDH


EDNY - Friedrichshafen

ULTIMO METAR :
  • 190620Z VRB01KT 9999 SCT057 M02/M02 Q1031

METARs OBSOLETI :
  • 190550Z VRB02KT 9999 BKN056 M01/M02 Q1030
  • 190520Z VRB02KT 9999 BKN055 M01/M02 Q1030
  • 190450Z VRB02KT 9999 BKN054 M01/M02 Q1030
  • 190420Z AUTO /////KT ///V/// 9999 // BKN056/// ///// Q////
  • 190350Z AUTO /////KT ///V/// 9999 // SCT054/// ///// Q////

TAF TAF EDNY
Valido dal 19 a 06 ore il 20 a 06 ore UTC


190500Z 1906/2006 04005KT 9999 BKN040
PROB30
TEMPO 1910/1914 2500 -SHSN BKN012TCU
BECMG 2001/2003 05010KT



MetMap, La meteo Aeronautica in un colpo d'occhio ! - Copyright ORBIFLY Dicembre 2007 - Disclaimer

ORBIFLY MET'MAP TEAM :

Programmazione e sviluppo : Alexandra Zaïnal
Concezione : Baudouin d'Aumeries
Aiuto per la programmazione : Marc-Olivier Méhu
Supporto tecnico e logistico : Manuel Goepfert
Aiuto per la traduzione : Arnaldo La Scala

Contatto : metmap@orbifly.com




FONTI E CREDITI :

   NOAA